sensor_id;sensor_type;location;lat;lon;timestamp;temperature;humidity
80296;DHT22;69597;42.124;24.722;2023-04-25T06:58:55;24.50;41.00
80296;DHT22;69597;42.124;24.722;2023-04-25T07:01:21;24.80;41.40
80296;DHT22;69597;42.124;24.722;2023-04-25T07:03:47;24.80;41.40
80296;DHT22;69597;42.124;24.722;2023-04-25T07:06:12;24.80;41.20
80296;DHT22;69597;42.124;24.722;2023-04-25T07:08:38;24.80;41.10
80296;DHT22;69597;42.124;24.722;2023-04-25T07:11:04;24.80;41.00
80296;DHT22;69597;42.124;24.722;2023-04-25T07:13:29;24.80;40.90
80296;DHT22;69597;42.124;24.722;2023-04-25T07:15:55;24.80;40.80
80296;DHT22;69597;42.124;24.722;2023-04-25T07:18:22;24.80;40.80
80296;DHT22;69597;42.124;24.722;2023-04-25T07:20:47;24.80;40.80
80296;DHT22;69597;42.124;24.722;2023-04-25T07:23:13;24.80;40.80
80296;DHT22;69597;42.124;24.722;2023-04-25T07:25:39;24.80;40.80
80296;DHT22;69597;42.124;24.722;2023-04-25T07:28:04;24.80;40.70
80296;DHT22;69597;42.124;24.722;2023-04-25T07:30:30;24.70;40.30
80296;DHT22;69597;42.124;24.722;2023-04-25T07:32:56;24.70;39.80
80296;DHT22;69597;42.124;24.722;2023-04-25T07:35:22;24.70;40.00
80296;DHT22;69597;42.124;24.722;2023-04-25T07:37:47;24.70;40.60
80296;DHT22;69597;42.124;24.722;2023-04-25T07:40:13;24.60;40.00
80296;DHT22;69597;42.124;24.722;2023-04-25T07:42:41;24.60;40.40
80296;DHT22;69597;42.124;24.722;2023-04-25T07:45:07;24.60;40.20
80296;DHT22;69597;42.124;24.722;2023-04-25T07:47:32;24.60;40.40
80296;DHT22;69597;42.124;24.722;2023-04-25T07:49:58;24.60;40.90
80296;DHT22;69597;42.124;24.722;2023-04-25T07:52:24;24.60;40.90
80296;DHT22;69597;42.124;24.722;2023-04-25T07:54:49;24.60;40.90
80296;DHT22;69597;42.124;24.722;2023-04-25T07:57:15;24.70;41.00
80296;DHT22;69597;42.124;24.722;2023-04-25T07:59:42;24.70;41.00
80296;DHT22;69597;42.124;24.722;2023-04-25T08:02:08;24.70;41.00
80296;DHT22;69597;42.124;24.722;2023-04-25T08:04:34;24.80;41.00
80296;DHT22;69597;42.124;24.722;2023-04-25T08:07:00;24.80;40.90
80296;DHT22;69597;42.124;24.722;2023-04-25T08:09:25;24.80;40.90
80296;DHT22;69597;42.124;24.722;2023-04-25T08:11:51;24.90;40.80
80296;DHT22;69597;42.124;24.722;2023-04-25T08:14:17;25.00;40.80
80296;DHT22;69597;42.124;24.722;2023-04-25T08:16:42;25.00;40.60
80296;DHT22;69597;42.124;24.722;2023-04-25T08:19:09;25.10;40.50
80296;DHT22;69597;42.124;24.722;2023-04-25T08:21:36;25.20;40.40
80296;DHT22;69597;42.124;24.722;2023-04-25T08:24:04;25.20;40.20
80296;DHT22;69597;42.124;24.722;2023-04-25T08:26:29;25.30;40.20
80296;DHT22;69597;42.124;24.722;2023-04-25T08:28:55;25.30;40.10
80296;DHT22;69597;42.124;24.722;2023-04-25T08:31:21;25.30;40.00
80296;DHT22;69597;42.124;24.722;2023-04-25T08:33:47;25.30;40.00
80296;DHT22;69597;42.124;24.722;2023-04-25T08:36:12;25.30;40.10
80296;DHT22;69597;42.124;24.722;2023-04-25T08:38:38;25.30;40.10
80296;DHT22;69597;42.124;24.722;2023-04-25T08:41:05;25.30;40.30
80296;DHT22;69597;42.124;24.722;2023-04-25T08:43:32;25.20;40.30
80296;DHT22;69597;42.124;24.722;2023-04-25T08:46:01;25.20;40.40
80296;DHT22;69597;42.124;24.722;2023-04-25T08:48:27;25.10;40.50
80296;DHT22;69597;42.124;24.722;2023-04-25T08:50:56;25.10;40.60
80296;DHT22;69597;42.124;24.722;2023-04-25T08:53:32;25.20;40.80
80296;DHT22;69597;42.124;24.722;2023-04-25T08:56:00;25.10;40.80
80296;DHT22;69597;42.124;24.722;2023-04-25T08:58:29;25.10;40.80
80296;DHT22;69597;42.124;24.722;2023-04-25T09:00:55;25.20;40.90
80296;DHT22;69597;42.124;24.722;2023-04-25T09:03:21;25.20;40.80
80296;DHT22;69597;42.124;24.722;2023-04-25T09:05:47;25.20;40.70
80296;DHT22;69597;42.124;24.722;2023-04-25T09:08:13;25.20;40.70
80296;DHT22;69597;42.124;24.722;2023-04-25T09:10:40;25.20;40.60
80296;DHT22;69597;42.124;24.722;2023-04-25T09:13:08;25.30;40.60
80296;DHT22;69597;42.124;24.722;2023-04-25T09:15:52;25.30;40.70
80296;DHT22;69597;42.124;24.722;2023-04-25T09:18:28;25.30;40.70
80296;DHT22;69597;42.124;24.722;2023-04-25T09:20:55;25.30;40.60
80296;DHT22;69597;42.124;24.722;2023-04-25T09:23:22;25.30;40.60
80296;DHT22;69597;42.124;24.722;2023-04-25T09:25:50;25.30;40.60
80296;DHT22;69597;42.124;24.722;2023-04-25T09:28:16;25.30;40.60
80296;DHT22;69597;42.124;24.722;2023-04-25T09:30:47;25.30;40.70
80296;DHT22;69597;42.124;24.722;2023-04-25T09:33:13;25.30;40.60
80296;DHT22;69597;42.124;24.722;2023-04-25T09:35:44;25.40;40.60
80296;DHT22;69597;42.124;24.722;2023-04-25T09:38:14;25.50;40.50
80296;DHT22;69597;42.124;24.722;2023-04-25T09:40:43;25.60;40.20
80296;DHT22;69597;42.124;24.722;2023-04-25T09:43:29;25.60;40.00
80296;DHT22;69597;42.124;24.722;2023-04-25T09:45:55;25.70;39.90
80296;DHT22;69597;42.124;24.722;2023-04-25T09:48:26;25.70;39.90
80296;DHT22;69597;42.124;24.722;2023-04-25T09:51:13;25.70;39.90
80296;DHT22;69597;42.124;24.722;2023-04-25T09:53:40;25.80;39.90
80296;DHT22;69597;42.124;24.722;2023-04-25T09:56:11;25.70;40.90
80296;DHT22;69597;42.124;24.722;2023-04-25T09:58:39;25.70;39.80
80296;DHT22;69597;42.124;24.722;2023-04-25T10:01:07;25.70;39.80
80296;DHT22;69597;42.124;24.722;2023-04-25T10:03:42;25.80;39.80
80296;DHT22;69597;42.124;24.722;2023-04-25T10:06:19;25.80;39.80
80296;DHT22;69597;42.124;24.722;2023-04-25T10:08:50;25.80;39.80
80296;DHT22;69597;42.124;24.722;2023-04-25T10:11:17;25.80;39.60
80296;DHT22;69597;42.124;24.722;2023-04-25T10:13:43;25.90;39.50
80296;DHT22;69597;42.124;24.722;2023-04-25T10:16:09;25.90;39.60
80296;DHT22;69597;42.124;24.722;2023-04-25T10:18:35;25.90;39.60
80296;DHT22;69597;42.124;24.722;2023-04-25T10:21:04;25.90;39.60
80296;DHT22;69597;42.124;24.722;2023-04-25T10:23:30;25.90;39.60
80296;DHT22;69597;42.124;24.722;2023-04-25T10:25:57;25.90;39.60
80296;DHT22;69597;42.124;24.722;2023-04-25T10:28:23;25.90;39.60
80296;DHT22;69597;42.124;24.722;2023-04-25T10:31:11;25.90;39.60
80296;DHT22;69597;42.124;24.722;2023-04-25T10:33:43;25.90;39.50
80296;DHT22;69597;42.124;24.722;2023-04-25T10:36:13;26.00;40.50
80296;DHT22;69597;42.124;24.722;2023-04-25T10:38:39;26.00;39.40
80296;DHT22;69597;42.124;24.722;2023-04-25T10:41:07;26.00;39.20
80296;DHT22;69597;42.124;24.722;2023-04-25T10:43:37;26.10;39.20
80296;DHT22;69597;42.124;24.722;2023-04-25T10:46:13;26.10;39.10
80296;DHT22;69597;42.124;24.722;2023-04-25T10:48:50;26.20;39.10
80296;DHT22;69597;42.124;24.722;2023-04-25T10:56:22;26.20;39.90
80296;DHT22;69597;42.124;24.722;2023-04-25T10:58:48;26.20;38.90
80296;DHT22;69597;42.124;24.722;2023-04-25T11:01:19;26.20;38.90
80296;DHT22;69597;42.124;24.722;2023-04-25T11:03:45;26.30;39.00
80296;DHT22;69597;42.124;24.722;2023-04-25T11:06:40;26.30;38.80
80296;DHT22;69597;42.124;24.722;2023-04-25T11:09:11;26.30;38.80
80296;DHT22;69597;42.124;24.722;2023-04-25T11:11:39;26.40;38.80
80296;DHT22;69597;42.124;24.722;2023-04-25T11:14:04;26.40;38.60
80296;DHT22;69597;42.124;24.722;2023-04-25T11:16:30;26.40;38.40
80296;DHT22;69597;42.124;24.722;2023-04-25T11:18:58;26.50;38.30
80296;DHT22;69597;42.124;24.722;2023-04-25T11:21:25;26.50;38.30
80296;DHT22;69597;42.124;24.722;2023-04-25T11:23:53;26.60;38.20
80296;DHT22;69597;42.124;24.722;2023-04-25T11:26:20;26.60;38.00
80296;DHT22;69597;42.124;24.722;2023-04-25T11:28:46;26.70;38.00
80296;DHT22;69597;42.124;24.722;2023-04-25T11:31:12;26.70;37.80
80296;DHT22;69597;42.124;24.722;2023-04-25T11:33:38;26.80;37.70
80296;DHT22;69597;42.124;24.722;2023-04-25T11:36:06;26.80;37.60
80296;DHT22;69597;42.124;24.722;2023-04-25T11:38:32;26.90;37.60
80296;DHT22;69597;42.124;24.722;2023-04-25T11:40:58;26.80;37.50
80296;DHT22;69597;42.124;24.722;2023-04-25T11:43:25;26.80;37.40
80296;DHT22;69597;42.124;24.722;2023-04-25T11:45:51;26.90;37.60
80296;DHT22;69597;42.124;24.722;2023-04-25T11:48:18;26.90;37.50
80296;DHT22;69597;42.124;24.722;2023-04-25T11:50:44;26.80;37.50
80296;DHT22;69597;42.124;24.722;2023-04-25T11:53:10;26.80;37.50
80296;DHT22;69597;42.124;24.722;2023-04-25T11:55:36;26.90;37.60
80296;DHT22;69597;42.124;24.722;2023-04-25T11:58:04;26.90;37.50
80296;DHT22;69597;42.124;24.722;2023-04-25T12:00:30;26.80;37.50
80296;DHT22;69597;42.124;24.722;2023-04-25T12:02:57;26.90;37.50
80296;DHT22;69597;42.124;24.722;2023-04-25T12:05:28;26.90;37.50
80296;DHT22;69597;42.124;24.722;2023-04-25T12:07:55;26.90;37.40
80296;DHT22;69597;42.124;24.722;2023-04-25T12:10:21;26.90;37.40
80296;DHT22;69597;42.124;24.722;2023-04-25T12:12:48;26.90;37.30
80296;DHT22;69597;42.124;24.722;2023-04-25T12:15:22;27.00;37.40
80296;DHT22;69597;42.124;24.722;2023-04-25T12:17:50;27.00;37.30
80296;DHT22;69597;42.124;24.722;2023-04-25T12:20:18;26.90;37.30
80296;DHT22;69597;42.124;24.722;2023-04-25T12:22:45;26.90;37.30
80296;DHT22;69597;42.124;24.722;2023-04-25T12:25:13;27.00;37.40
80296;DHT22;69597;42.124;24.722;2023-04-25T12:27:39;27.00;37.30
80296;DHT22;69597;42.124;24.722;2023-04-25T12:30:08;27.10;37.30
80296;DHT22;69597;42.124;24.722;2023-04-25T12:32:37;27.00;37.10
80296;DHT22;69597;42.124;24.722;2023-04-25T12:35:06;27.10;37.00
80296;DHT22;69597;42.124;24.722;2023-04-25T12:37:32;27.10;37.00
80296;DHT22;69597;42.124;24.722;2023-04-25T12:39:57;27.20;37.00
80296;DHT22;69597;42.124;24.722;2023-04-25T12:42:23;27.20;36.90
80296;DHT22;69597;42.124;24.722;2023-04-25T12:44:48;27.20;36.80
80296;DHT22;69597;42.124;24.722;2023-04-25T12:47:14;27.30;36.70
80296;DHT22;69597;42.124;24.722;2023-04-25T12:49:40;27.30;36.50
80296;DHT22;69597;42.124;24.722;2023-04-25T12:52:06;27.40;36.40
80296;DHT22;69597;42.124;24.722;2023-04-25T12:54:31;27.40;36.30
80296;DHT22;69597;42.124;24.722;2023-04-25T12:56:57;27.40;36.30
80296;DHT22;69597;42.124;24.722;2023-04-25T12:59:23;27.40;36.40
80296;DHT22;69597;42.124;24.722;2023-04-25T13:01:49;27.40;36.50
80296;DHT22;69597;42.124;24.722;2023-04-25T13:04:15;27.40;36.50
80296;DHT22;69597;42.124;24.722;2023-04-25T13:06:41;27.40;36.60
80296;DHT22;69597;42.124;24.722;2023-04-25T13:09:07;27.30;36.70
80296;DHT22;69597;42.124;24.722;2023-04-25T13:11:32;27.10;36.90
80296;DHT22;69597;42.124;24.722;2023-04-25T13:13:58;27.10;37.10
80296;DHT22;69597;42.124;24.722;2023-04-25T13:16:24;27.00;37.20
80296;DHT22;69597;42.124;24.722;2023-04-25T13:18:49;26.90;37.50
80296;DHT22;69597;42.124;24.722;2023-04-25T13:21:18;26.80;37.70
80296;DHT22;69597;42.124;24.722;2023-04-25T13:23:43;26.70;37.70
80296;DHT22;69597;42.124;24.722;2023-04-25T13:26:11;26.70;38.00
80296;DHT22;69597;42.124;24.722;2023-04-25T13:28:37;26.60;38.00
80296;DHT22;69597;42.124;24.722;2023-04-25T13:31:02;26.60;38.20
80296;DHT22;69597;42.124;24.722;2023-04-25T13:33:28;26.60;38.20
80296;DHT22;69597;42.124;24.722;2023-04-25T13:35:54;26.60;38.20
80296;DHT22;69597;42.124;24.722;2023-04-25T13:38:22;26.60;38.30
80296;DHT22;69597;42.124;24.722;2023-04-25T13:40:49;26.60;38.30
80296;DHT22;69597;42.124;24.722;2023-04-25T13:43:18;26.60;38.30
80296;DHT22;69597;42.124;24.722;2023-04-25T13:45:44;26.60;39.50
80296;DHT22;69597;42.124;24.722;2023-04-25T13:48:10;26.60;38.40
80296;DHT22;69597;42.124;24.722;2023-04-25T13:50:35;26.50;38.30
80296;DHT22;69597;42.124;24.722;2023-04-25T13:53:01;26.50;38.30
80296;DHT22;69597;42.124;24.722;2023-04-25T13:55:27;26.50;38.30
80296;DHT22;69597;42.124;24.722;2023-04-25T13:57:52;26.60;38.30
80296;DHT22;69597;42.124;24.722;2023-04-25T14:00:18;26.60;38.20
80296;DHT22;69597;42.124;24.722;2023-04-25T14:02:44;26.70;38.00
80296;DHT22;69597;42.124;24.722;2023-04-25T14:05:10;26.80;37.70
80296;DHT22;69597;42.124;24.722;2023-04-25T14:07:36;26.90;37.50
80296;DHT22;69597;42.124;24.722;2023-04-25T14:10:02;26.90;37.40
80296;DHT22;69597;42.124;24.722;2023-04-25T14:12:28;27.00;37.40
80296;DHT22;69597;42.124;24.722;2023-04-25T14:14:53;27.00;37.40
80296;DHT22;69597;42.124;24.722;2023-04-25T14:17:19;27.10;37.30
80296;DHT22;69597;42.124;24.722;2023-04-25T14:19:45;27.00;37.30
80296;DHT22;69597;42.124;24.722;2023-04-25T14:22:13;27.00;37.40
80296;DHT22;69597;42.124;24.722;2023-04-25T14:24:39;27.00;37.50
80296;DHT22;69597;42.124;24.722;2023-04-25T14:27:05;27.00;37.40
80296;DHT22;69597;42.124;24.722;2023-04-25T14:29:31;27.10;37.20
80296;DHT22;69597;42.124;24.722;2023-04-25T14:31:57;27.10;37.30
80296;DHT22;69597;42.124;24.722;2023-04-25T14:34:24;27.00;37.20
80296;DHT22;69597;42.124;24.722;2023-04-25T14:36:51;27.00;37.30
80296;DHT22;69597;42.124;24.722;2023-04-25T14:39:17;26.90;37.40
80296;DHT22;69597;42.124;24.722;2023-04-25T14:41:43;26.90;37.50
80296;DHT22;69597;42.124;24.722;2023-04-25T14:44:09;26.90;37.60
80296;DHT22;69597;42.124;24.722;2023-04-25T14:46:36;26.80;37.40
80296;DHT22;69597;42.124;24.722;2023-04-25T14:49:02;26.80;37.60
80296;DHT22;69597;42.124;24.722;2023-04-25T14:51:28;26.80;37.60
80296;DHT22;69597;42.124;24.722;2023-04-25T14:53:55;26.80;37.70
80296;DHT22;69597;42.124;24.722;2023-04-25T14:56:21;26.80;37.70
80296;DHT22;69597;42.124;24.722;2023-04-25T14:58:46;26.70;37.70
80296;DHT22;69597;42.124;24.722;2023-04-25T15:01:15;26.60;38.00
80296;DHT22;69597;42.124;24.722;2023-04-25T15:03:41;26.60;38.00
80296;DHT22;69597;42.124;24.722;2023-04-25T15:06:07;26.50;38.00
80296;DHT22;69597;42.124;24.722;2023-04-25T15:08:33;26.50;38.20
80296;DHT22;69597;42.124;24.722;2023-04-25T15:11:00;26.40;38.30
80296;DHT22;69597;42.124;24.722;2023-04-25T15:13:26;26.40;38.40
80296;DHT22;69597;42.124;24.722;2023-04-25T15:15:52;26.40;38.50
80296;DHT22;69597;42.124;24.722;2023-04-25T15:18:20;26.30;38.60
80296;DHT22;69597;42.124;24.722;2023-04-25T15:20:53;26.30;38.60
80296;DHT22;69597;42.124;24.722;2023-04-25T15:23:20;26.30;38.80
80296;DHT22;69597;42.124;24.722;2023-04-25T15:25:47;26.30;38.90
80296;DHT22;69597;42.124;24.722;2023-04-25T15:28:13;26.20;38.80
80296;DHT22;69597;42.124;24.722;2023-04-25T15:30:42;26.10;39.00
80296;DHT22;69597;42.124;24.722;2023-04-25T15:33:08;26.10;39.00
80296;DHT22;69597;42.124;24.722;2023-04-25T15:35:34;26.10;39.10
80296;DHT22;69597;42.124;24.722;2023-04-25T15:38:02;26.10;39.10
80296;DHT22;69597;42.124;24.722;2023-04-25T15:40:28;26.10;39.10
80296;DHT22;69597;42.124;24.722;2023-04-25T15:42:53;26.10;38.90
80296;DHT22;69597;42.124;24.722;2023-04-25T15:45:23;26.00;38.90
80296;DHT22;69597;42.124;24.722;2023-04-25T15:47:51;26.00;38.90
80296;DHT22;69597;42.124;24.722;2023-04-25T15:50:20;25.90;37.90
80296;DHT22;69597;42.124;24.722;2023-04-25T15:52:48;25.70;38.60
80296;DHT22;69597;42.124;24.722;2023-04-25T15:55:15;25.70;39.20
80296;DHT22;69597;42.124;24.722;2023-04-25T15:57:42;25.70;38.70
80296;DHT22;69597;42.124;24.722;2023-04-25T16:00:11;25.70;38.50
80296;DHT22;69597;42.124;24.722;2023-04-25T16:02:42;25.60;38.90
80296;DHT22;69597;42.124;24.722;2023-04-25T16:05:09;25.70;38.70
80296;DHT22;69597;42.124;24.722;2023-04-25T16:07:36;25.50;38.40
80296;DHT22;69597;42.124;24.722;2023-04-25T16:10:05;25.50;38.90
80296;DHT22;69597;42.124;24.722;2023-04-25T16:12:31;25.50;39.10
80296;DHT22;69597;42.124;24.722;2023-04-25T16:14:56;25.40;39.30
80296;DHT22;69597;42.124;24.722;2023-04-25T16:17:25;25.40;39.70
80296;DHT22;69597;42.124;24.722;2023-04-25T16:19:54;25.40;40.10
80296;DHT22;69597;42.124;24.722;2023-04-25T16:22:19;25.30;39.70
80296;DHT22;69597;42.124;24.722;2023-04-25T16:24:45;25.20;39.70
80296;DHT22;69597;42.124;24.722;2023-04-25T16:27:11;25.20;40.00
80296;DHT22;69597;42.124;24.722;2023-04-25T16:29:37;25.20;40.50
80296;DHT22;69597;42.124;24.722;2023-04-25T16:32:03;25.20;40.90
80296;DHT22;69597;42.124;24.722;2023-04-25T16:34:29;25.10;41.40
80296;DHT22;69597;42.124;24.722;2023-04-25T16:36:56;25.00;41.60
80296;DHT22;69597;42.124;24.722;2023-04-25T16:39:22;25.00;41.80
80296;DHT22;69597;42.124;24.722;2023-04-25T16:41:48;25.00;42.00
80296;DHT22;69597;42.124;24.722;2023-04-25T16:44:14;25.00;41.30
80296;DHT22;69597;42.124;24.722;2023-04-25T16:46:40;25.10;40.70
80296;DHT22;69597;42.124;24.722;2023-04-25T16:49:05;25.00;40.50
80296;DHT22;69597;42.124;24.722;2023-04-25T16:51:32;25.00;40.70
80296;DHT22;69597;42.124;24.722;2023-04-25T16:54:01;25.00;40.00
80296;DHT22;69597;42.124;24.722;2023-04-25T16:56:27;25.00;40.20
80296;DHT22;69597;42.124;24.722;2023-04-25T16:58:52;24.90;39.40
80296;DHT22;69597;42.124;24.722;2023-04-25T17:01:18;24.80;39.00
80296;DHT22;69597;42.124;24.722;2023-04-25T17:03:46;24.80;39.30
80296;DHT22;69597;42.124;24.722;2023-04-25T17:06:12;24.70;39.50
80296;DHT22;69597;42.124;24.722;2023-04-25T17:08:39;24.60;39.60
80296;DHT22;69597;42.124;24.722;2023-04-25T17:11:05;24.60;39.90
80296;DHT22;69597;42.124;24.722;2023-04-25T17:13:31;24.60;40.10
80296;DHT22;69597;42.124;24.722;2023-04-25T17:15:58;24.50;40.40
80296;DHT22;69597;42.124;24.722;2023-04-25T17:18:27;24.50;40.80
80296;DHT22;69597;42.124;24.722;2023-04-25T17:20:54;24.50;41.00
80296;DHT22;69597;42.124;24.722;2023-04-25T17:23:20;24.60;41.10
80296;DHT22;69597;42.124;24.722;2023-04-25T17:25:45;24.60;41.00
80296;DHT22;69597;42.124;24.722;2023-04-25T17:28:11;24.60;40.80
80296;DHT22;69597;42.124;24.722;2023-04-25T17:30:39;24.60;40.90
80296;DHT22;69597;42.124;24.722;2023-04-25T17:33:06;24.60;41.00
80296;DHT22;69597;42.124;24.722;2023-04-25T17:35:32;24.50;41.00
80296;DHT22;69597;42.124;24.722;2023-04-25T17:37:59;24.50;41.20
80296;DHT22;69597;42.124;24.722;2023-04-25T17:40:27;24.50;41.20
80296;DHT22;69597;42.124;24.722;2023-04-25T17:42:53;24.50;41.20
80296;DHT22;69597;42.124;24.722;2023-04-25T17:45:19;24.50;41.30
80296;DHT22;69597;42.124;24.722;2023-04-25T17:47:51;24.50;42.50
80296;DHT22;69597;42.124;24.722;2023-04-25T17:50:16;24.50;41.40
80296;DHT22;69597;42.124;24.722;2023-04-25T17:52:43;24.40;41.40
80296;DHT22;69597;42.124;24.722;2023-04-25T17:55:09;24.40;41.50
80296;DHT22;69597;42.124;24.722;2023-04-25T17:57:35;24.50;41.60
80296;DHT22;69597;42.124;24.722;2023-04-25T18:00:01;24.50;41.50
80296;DHT22;69597;42.124;24.722;2023-04-25T18:02:28;24.50;41.40
80296;DHT22;69597;42.124;24.722;2023-04-25T18:04:53;24.50;41.40
80296;DHT22;69597;42.124;24.722;2023-04-25T18:07:19;24.50;41.40
80296;DHT22;69597;42.124;24.722;2023-04-25T18:09:45;24.60;41.40
80296;DHT22;69597;42.124;24.722;2023-04-25T18:12:11;24.50;41.40
80296;DHT22;69597;42.124;24.722;2023-04-25T18:14:39;24.50;41.60
80296;DHT22;69597;42.124;24.722;2023-04-25T18:17:05;24.60;41.80
80296;DHT22;69597;42.124;24.722;2023-04-25T18:19:33;24.50;41.70
80296;DHT22;69597;42.124;24.722;2023-04-25T18:21:59;24.50;41.70
80296;DHT22;69597;42.124;24.722;2023-04-25T18:24:25;24.50;41.80
80296;DHT22;69597;42.124;24.722;2023-04-25T18:26:52;24.50;42.20
80296;DHT22;69597;42.124;24.722;2023-04-25T18:29:19;24.40;42.20
80296;DHT22;69597;42.124;24.722;2023-04-25T18:31:45;24.40;42.10
80296;DHT22;69597;42.124;24.722;2023-04-25T18:34:12;24.40;42.20
80296;DHT22;69597;42.124;24.722;2023-04-25T18:36:38;24.40;42.30
80296;DHT22;69597;42.124;24.722;2023-04-25T18:39:05;24.40;42.20
80296;DHT22;69597;42.124;24.722;2023-04-25T18:41:35;24.40;42.20
80296;DHT22;69597;42.124;24.722;2023-04-25T18:44:01;24.50;42.20
80296;DHT22;69597;42.124;24.722;2023-04-25T18:46:29;24.40;42.10
80296;DHT22;69597;42.124;24.722;2023-04-25T18:48:55;24.50;42.10
80296;DHT22;69597;42.124;24.722;2023-04-25T18:51:21;24.50;42.20
80296;DHT22;69597;42.124;24.722;2023-04-25T18:53:48;24.40;42.30
80296;DHT22;69597;42.124;24.722;2023-04-25T18:56:14;24.40;42.20
80296;DHT22;69597;42.124;24.722;2023-04-25T18:58:40;24.40;42.20
80296;DHT22;69597;42.124;24.722;2023-04-25T19:01:06;24.40;42.20
80296;DHT22;69597;42.124;24.722;2023-04-25T19:03:34;24.40;42.20
80296;DHT22;69597;42.124;24.722;2023-04-25T19:06:00;24.40;42.20
80296;DHT22;69597;42.124;24.722;2023-04-25T19:08:26;24.40;42.50
80296;DHT22;69597;42.124;24.722;2023-04-25T19:10:52;24.40;42.70
80296;DHT22;69597;42.124;24.722;2023-04-25T19:13:19;24.40;42.70
80296;DHT22;69597;42.124;24.722;2023-04-25T19:15:47;24.40;42.80
80296;DHT22;69597;42.124;24.722;2023-04-25T19:18:13;24.40;42.90
80296;DHT22;69597;42.124;24.722;2023-04-25T19:20:40;24.40;42.90
80296;DHT22;69597;42.124;24.722;2023-04-25T19:23:06;24.40;42.90
80296;DHT22;69597;42.124;24.722;2023-04-25T19:25:33;24.40;42.90
80296;DHT22;69597;42.124;24.722;2023-04-25T19:27:59;24.40;42.80
80296;DHT22;69597;42.124;24.722;2023-04-25T19:30:26;24.40;42.80
80296;DHT22;69597;42.124;24.722;2023-04-25T19:32:53;24.40;42.80
80296;DHT22;69597;42.124;24.722;2023-04-25T19:35:21;24.40;42.80
80296;DHT22;69597;42.124;24.722;2023-04-25T19:37:46;24.30;42.70
80296;DHT22;69597;42.124;24.722;2023-04-25T19:40:13;24.40;42.70
80296;DHT22;69597;42.124;24.722;2023-04-25T19:42:39;24.40;42.70
80296;DHT22;69597;42.124;24.722;2023-04-25T19:45:06;24.40;42.70
80296;DHT22;69597;42.124;24.722;2023-04-25T19:47:32;24.40;42.70
80296;DHT22;69597;42.124;24.722;2023-04-25T19:49:57;24.40;42.70
80296;DHT22;69597;42.124;24.722;2023-04-25T19:52:23;24.30;42.70
80296;DHT22;69597;42.124;24.722;2023-04-25T19:54:51;24.30;42.60
80296;DHT22;69597;42.124;24.722;2023-04-25T19:57:19;24.40;42.70
80296;DHT22;69597;42.124;24.722;2023-04-25T19:59:44;24.30;42.60
80296;DHT22;69597;42.124;24.722;2023-04-25T20:02:12;24.40;42.70
80296;DHT22;69597;42.124;24.722;2023-04-25T20:04:38;24.30;42.90
80296;DHT22;69597;42.124;24.722;2023-04-25T20:07:03;24.30;43.20
80296;DHT22;69597;42.124;24.722;2023-04-25T20:09:29;24.30;43.10
80296;DHT22;69597;42.124;24.722;2023-04-25T20:11:55;24.30;43.10
80296;DHT22;69597;42.124;24.722;2023-04-25T20:14:21;24.30;43.20
80296;DHT22;69597;42.124;24.722;2023-04-25T20:16:47;24.30;43.10
80296;DHT22;69597;42.124;24.722;2023-04-25T20:19:13;24.30;47.10
80296;DHT22;69597;42.124;24.722;2023-04-25T20:21:38;24.30;49.20
80296;DHT22;69597;42.124;24.722;2023-04-25T20:24:04;24.40;47.00
80296;DHT22;69597;42.124;24.722;2023-04-25T20:26:31;24.50;47.80
80296;DHT22;69597;42.124;24.722;2023-04-25T20:28:59;24.50;46.90
80296;DHT22;69597;42.124;24.722;2023-04-25T20:31:25;24.50;46.60
80296;DHT22;69597;42.124;24.722;2023-04-25T20:33:51;24.50;46.70
80296;DHT22;69597;42.124;24.722;2023-04-25T20:36:17;24.60;46.70
80296;DHT22;69597;42.124;24.722;2023-04-25T20:38:44;24.60;46.80
80296;DHT22;69597;42.124;24.722;2023-04-25T20:41:10;24.60;46.80
80296;DHT22;69597;42.124;24.722;2023-04-25T20:43:36;24.60;46.80
80296;DHT22;69597;42.124;24.722;2023-04-25T20:46:04;24.60;46.90
80296;DHT22;69597;42.124;24.722;2023-04-25T20:48:30;24.60;47.00
80296;DHT22;69597;42.124;24.722;2023-04-25T20:50:56;24.60;47.10
80296;DHT22;69597;42.124;24.722;2023-04-25T20:53:22;24.50;47.10
80296;DHT22;69597;42.124;24.722;2023-04-25T20:55:48;24.50;47.20
80296;DHT22;69597;42.124;24.722;2023-04-25T20:58:14;24.50;47.20
80296;DHT22;69597;42.124;24.722;2023-04-25T21:00:39;24.50;47.20
80296;DHT22;69597;42.124;24.722;2023-04-25T21:03:05;24.50;47.30
80296;DHT22;69597;42.124;24.722;2023-04-25T21:05:32;24.50;47.30
80296;DHT22;69597;42.124;24.722;2023-04-25T21:07:57;24.40;47.30
80296;DHT22;69597;42.124;24.722;2023-04-25T21:10:23;24.40;47.30
80296;DHT22;69597;42.124;24.722;2023-04-25T21:12:49;24.40;47.40
80296;DHT22;69597;42.124;24.722;2023-04-25T21:15:17;24.40;47.50
80296;DHT22;69597;42.124;24.722;2023-04-25T21:17:45;24.40;47.50
80296;DHT22;69597;42.124;24.722;2023-04-25T21:20:13;24.40;47.60
80296;DHT22;69597;42.124;24.722;2023-04-25T21:22:40;24.40;47.70
80296;DHT22;69597;42.124;24.722;2023-04-25T21:25:16;24.40;47.80
80296;DHT22;69597;42.124;24.722;2023-04-25T21:27:49;24.40;47.90
80296;DHT22;69597;42.124;24.722;2023-04-25T21:30:16;24.40;48.00
80296;DHT22;69597;42.124;24.722;2023-04-25T21:32:44;24.40;48.20
80296;DHT22;69597;42.124;24.722;2023-04-25T21:35:11;24.40;48.60
80296;DHT22;69597;42.124;24.722;2023-04-25T21:37:37;24.40;48.60
80296;DHT22;69597;42.124;24.722;2023-04-25T21:40:03;24.30;48.80
80296;DHT22;69597;42.124;24.722;2023-04-25T21:42:30;24.40;49.10
80296;DHT22;69597;42.124;24.722;2023-04-25T21:44:56;24.40;49.40
80296;DHT22;69597;42.124;24.722;2023-04-25T21:47:22;24.40;49.40
80296;DHT22;69597;42.124;24.722;2023-04-25T21:49:49;24.30;49.80
80296;DHT22;69597;42.124;24.722;2023-04-25T21:52:15;24.30;50.00
80296;DHT22;69597;42.124;24.722;2023-04-25T21:54:41;24.30;50.30
80296;DHT22;69597;42.124;24.722;2023-04-25T21:57:06;24.30;50.60
80296;DHT22;69597;42.124;24.722;2023-04-25T21:59:32;24.30;50.80
80296;DHT22;69597;42.124;24.722;2023-04-25T22:02:00;24.30;51.10
80296;DHT22;69597;42.124;24.722;2023-04-25T22:04:26;24.30;51.40
80296;DHT22;69597;42.124;24.722;2023-04-25T22:06:51;24.30;51.60
80296;DHT22;69597;42.124;24.722;2023-04-25T22:09:17;24.30;51.70
80296;DHT22;69597;42.124;24.722;2023-04-25T22:11:43;24.30;51.60
80296;DHT22;69597;42.124;24.722;2023-04-25T22:14:09;24.30;51.90
80296;DHT22;69597;42.124;24.722;2023-04-25T22:16:36;24.30;51.90